Allison, Illinois
Current Conditions -  °F | °C
As of 8:53 PM on Saturday 25 Oct 2014 (Local Time) from KLWV Reporting Station
Haze Haze  
Wind Chill: 61°   Ceiling: Unl
Heat Index: 61°   Visibility: 0.75mi
Dew Point: 52°   Wind: 5mph
Humidity: 72%   Direction: 260°W
Pressure: 29.98"   Gusts: NA
Location:  38.7501°N, 87.6141°W
Report Text: KLWV 260153Z AUTO 26004KT 3/4SM HZ CLR 16/11 A2998 RMK AO2 SLP152 T01610111
Loading
Personal Weather Stations






























Interactive Weather Map New forecast layout! Learn more

10-Day Weather Forecast

Advertisements
Track Severe Weather on mobile